sensor_id;sensor_type;location;lat;lon;timestamp;temperature;humidity
23839;DHT22;12100;44.384;20.272;2022-11-20T00:01:17;9.40;99.90
23839;DHT22;12100;44.384;20.272;2022-11-20T00:03:43;9.40;99.90
23839;DHT22;12100;44.384;20.272;2022-11-20T00:06:11;9.40;99.90
23839;DHT22;12100;44.384;20.272;2022-11-20T00:08:37;9.40;99.90
23839;DHT22;12100;44.384;20.272;2022-11-20T00:11:11;9.50;99.90
23839;DHT22;12100;44.384;20.272;2022-11-20T00:13:38;9.40;99.90
23839;DHT22;12100;44.384;20.272;2022-11-20T00:16:06;9.40;99.90
23839;DHT22;12100;44.384;20.272;2022-11-20T00:18:35;9.50;99.90
23839;DHT22;12100;44.384;20.272;2022-11-20T00:21:03;9.50;99.90
23839;DHT22;12100;44.384;20.272;2022-11-20T00:23:29;9.60;99.90
23839;DHT22;12100;44.384;20.272;2022-11-20T00:25:55;9.60;99.90
23839;DHT22;12100;44.384;20.272;2022-11-20T00:28:21;9.60;99.90
23839;DHT22;12100;44.384;20.272;2022-11-20T00:30:47;9.60;99.90
23839;DHT22;12100;44.384;20.272;2022-11-20T00:33:13;9.60;99.90
23839;DHT22;12100;44.384;20.272;2022-11-20T00:35:39;9.70;99.90
23839;DHT22;12100;44.384;20.272;2022-11-20T00:38:04;9.70;99.90
23839;DHT22;12100;44.384;20.272;2022-11-20T00:40:30;9.70;99.90
23839;DHT22;12100;44.384;20.272;2022-11-20T00:42:56;9.70;99.90
23839;DHT22;12100;44.384;20.272;2022-11-20T00:45:21;9.70;99.90
23839;DHT22;12100;44.384;20.272;2022-11-20T00:47:47;9.80;99.90
23839;DHT22;12100;44.384;20.272;2022-11-20T00:50:13;9.80;99.90
23839;DHT22;12100;44.384;20.272;2022-11-20T00:52:39;9.90;99.90
23839;DHT22;12100;44.384;20.272;2022-11-20T00:55:05;10.10;99.90
23839;DHT22;12100;44.384;20.272;2022-11-20T00:57:31;10.20;99.90
23839;DHT22;12100;44.384;20.272;2022-11-20T00:59:57;10.20;99.90
23839;DHT22;12100;44.384;20.272;2022-11-20T01:02:23;10.20;99.90
23839;DHT22;12100;44.384;20.272;2022-11-20T01:04:49;10.10;99.90
23839;DHT22;12100;44.384;20.272;2022-11-20T01:07:14;10.10;99.90
23839;DHT22;12100;44.384;20.272;2022-11-20T01:09:40;10.00;99.90
23839;DHT22;12100;44.384;20.272;2022-11-20T01:12:06;10.10;99.90
23839;DHT22;12100;44.384;20.272;2022-11-20T01:14:32;10.10;99.90
23839;DHT22;12100;44.384;20.272;2022-11-20T01:16:57;10.20;99.90
23839;DHT22;12100;44.384;20.272;2022-11-20T01:19:23;10.20;99.90
23839;DHT22;12100;44.384;20.272;2022-11-20T01:21:51;10.20;99.90
23839;DHT22;12100;44.384;20.272;2022-11-20T01:24:18;10.10;99.90
23839;DHT22;12100;44.384;20.272;2022-11-20T01:26:46;10.20;99.90
23839;DHT22;12100;44.384;20.272;2022-11-20T01:29:18;10.00;99.90
23839;DHT22;12100;44.384;20.272;2022-11-20T01:31:44;10.10;99.90
23839;DHT22;12100;44.384;20.272;2022-11-20T01:34:15;10.10;99.90
23839;DHT22;12100;44.384;20.272;2022-11-20T01:36:42;10.20;99.90
23839;DHT22;12100;44.384;20.272;2022-11-20T01:39:19;10.10;99.90
23839;DHT22;12100;44.384;20.272;2022-11-20T01:41:46;10.10;99.90
23839;DHT22;12100;44.384;20.272;2022-11-20T01:45:01;10.10;99.90
23839;DHT22;12100;44.384;20.272;2022-11-20T01:47:45;10.20;99.90
23839;DHT22;12100;44.384;20.272;2022-11-20T01:50:18;10.20;99.90
23839;DHT22;12100;44.384;20.272;2022-11-20T01:53:03;10.30;99.90
23839;DHT22;12100;44.384;20.272;2022-11-20T01:55:31;10.40;99.90
23839;DHT22;12100;44.384;20.272;2022-11-20T01:57:59;10.30;99.90
23839;DHT22;12100;44.384;20.272;2022-11-20T02:00:25;10.20;99.90
23839;DHT22;12100;44.384;20.272;2022-11-20T02:02:58;10.20;99.90
23839;DHT22;12100;44.384;20.272;2022-11-20T02:05:50;10.10;99.90
23839;DHT22;12100;44.384;20.272;2022-11-20T02:08:18;10.30;99.90
23839;DHT22;12100;44.384;20.272;2022-11-20T02:10:44;10.20;99.90
23839;DHT22;12100;44.384;20.272;2022-11-20T02:13:11;10.00;99.90
23839;DHT22;12100;44.384;20.272;2022-11-20T02:15:55;10.00;99.90
23839;DHT22;12100;44.384;20.272;2022-11-20T02:18:21;10.00;99.90
23839;DHT22;12100;44.384;20.272;2022-11-20T02:20:54;10.00;99.90
23839;DHT22;12100;44.384;20.272;2022-11-20T02:25:47;10.20;99.90
23839;DHT22;12100;44.384;20.272;2022-11-20T02:28:13;10.10;99.90
23839;DHT22;12100;44.384;20.272;2022-11-20T02:30:39;10.00;99.90
23839;DHT22;12100;44.384;20.272;2022-11-20T02:33:05;10.10;99.90
23839;DHT22;12100;44.384;20.272;2022-11-20T02:38:00;10.30;99.90
23839;DHT22;12100;44.384;20.272;2022-11-20T02:40:26;10.30;99.90
23839;DHT22;12100;44.384;20.272;2022-11-20T02:42:56;10.40;99.90
23839;DHT22;12100;44.384;20.272;2022-11-20T02:45:23;10.30;99.90
23839;DHT22;12100;44.384;20.272;2022-11-20T02:47:49;10.20;99.90
23839;DHT22;12100;44.384;20.272;2022-11-20T02:50:16;10.20;99.90
23839;DHT22;12100;44.384;20.272;2022-11-20T02:52:42;10.20;99.90
23839;DHT22;12100;44.384;20.272;2022-11-20T02:55:08;10.30;99.90
23839;DHT22;12100;44.384;20.272;2022-11-20T02:57:34;10.40;99.90
23839;DHT22;12100;44.384;20.272;2022-11-20T03:00:00;10.40;99.90
23839;DHT22;12100;44.384;20.272;2022-11-20T03:02:30;10.50;99.90
23839;DHT22;12100;44.384;20.272;2022-11-20T03:04:56;10.50;99.90
23839;DHT22;12100;44.384;20.272;2022-11-20T03:07:22;10.60;99.90
23839;DHT22;12100;44.384;20.272;2022-11-20T03:09:47;10.70;99.90
23839;DHT22;12100;44.384;20.272;2022-11-20T03:12:13;10.80;99.90
23839;DHT22;12100;44.384;20.272;2022-11-20T03:14:39;11.00;99.90
23839;DHT22;12100;44.384;20.272;2022-11-20T03:17:05;11.00;99.90
23839;DHT22;12100;44.384;20.272;2022-11-20T03:19:31;10.90;99.90
23839;DHT22;12100;44.384;20.272;2022-11-20T03:21:57;11.00;99.90
23839;DHT22;12100;44.384;20.272;2022-11-20T03:24:22;11.00;99.90
23839;DHT22;12100;44.384;20.272;2022-11-20T03:26:48;11.00;99.90
23839;DHT22;12100;44.384;20.272;2022-11-20T03:29:14;11.10;99.90
23839;DHT22;12100;44.384;20.272;2022-11-20T03:31:41;11.10;99.90
23839;DHT22;12100;44.384;20.272;2022-11-20T03:34:08;11.20;99.90
23839;DHT22;12100;44.384;20.272;2022-11-20T03:36:34;11.20;99.90
23839;DHT22;12100;44.384;20.272;2022-11-20T03:39:02;11.00;99.90
23839;DHT22;12100;44.384;20.272;2022-11-20T03:41:30;10.60;99.90
23839;DHT22;12100;44.384;20.272;2022-11-20T03:43:58;10.40;99.90
23839;DHT22;12100;44.384;20.272;2022-11-20T03:46:25;10.40;99.90
23839;DHT22;12100;44.384;20.272;2022-11-20T03:48:51;10.30;99.90
23839;DHT22;12100;44.384;20.272;2022-11-20T03:51:20;10.30;99.90
23839;DHT22;12100;44.384;20.272;2022-11-20T03:53:47;10.40;99.90
23839;DHT22;12100;44.384;20.272;2022-11-20T03:56:15;10.50;99.90
23839;DHT22;12100;44.384;20.272;2022-11-20T03:58:42;10.60;99.90
23839;DHT22;12100;44.384;20.272;2022-11-20T04:01:19;10.60;99.90
23839;DHT22;12100;44.384;20.272;2022-11-20T04:03:46;10.70;99.90
23839;DHT22;12100;44.384;20.272;2022-11-20T04:06:19;10.90;99.90
23839;DHT22;12100;44.384;20.272;2022-11-20T04:08:45;11.10;99.90
23839;DHT22;12100;44.384;20.272;2022-11-20T04:13:42;11.40;99.90
23839;DHT22;12100;44.384;20.272;2022-11-20T04:16:13;11.60;99.90
23839;DHT22;12100;44.384;20.272;2022-11-20T04:18:39;11.60;99.90
23839;DHT22;12100;44.384;20.272;2022-11-20T04:21:05;11.60;99.90
23839;DHT22;12100;44.384;20.272;2022-11-20T04:23:32;11.80;99.90
23839;DHT22;12100;44.384;20.272;2022-11-20T04:26:11;11.80;99.90
23839;DHT22;12100;44.384;20.272;2022-11-20T04:28:38;11.80;99.90
23839;DHT22;12100;44.384;20.272;2022-11-20T04:33:36;11.90;99.90
23839;DHT22;12100;44.384;20.272;2022-11-20T04:36:09;12.00;99.90
23839;DHT22;12100;44.384;20.272;2022-11-20T04:38:35;12.10;99.90
23839;DHT22;12100;44.384;20.272;2022-11-20T04:41:04;12.20;99.90
23839;DHT22;12100;44.384;20.272;2022-11-20T04:43:31;12.20;99.90
23839;DHT22;12100;44.384;20.272;2022-11-20T04:45:58;12.10;99.90
23839;DHT22;12100;44.384;20.272;2022-11-20T04:48:25;12.10;99.90
23839;DHT22;12100;44.384;20.272;2022-11-20T04:50:52;12.10;99.90
23839;DHT22;12100;44.384;20.272;2022-11-20T04:53:19;12.10;99.90
23839;DHT22;12100;44.384;20.272;2022-11-20T04:55:45;12.10;99.90
23839;DHT22;12100;44.384;20.272;2022-11-20T04:58:11;12.10;99.90
23839;DHT22;12100;44.384;20.272;2022-11-20T05:00:37;12.00;99.90
23839;DHT22;12100;44.384;20.272;2022-11-20T05:03:03;11.90;99.90
23839;DHT22;12100;44.384;20.272;2022-11-20T05:05:29;11.80;99.90
23839;DHT22;12100;44.384;20.272;2022-11-20T05:07:58;11.80;99.90
23839;DHT22;12100;44.384;20.272;2022-11-20T05:10:27;11.70;99.90
23839;DHT22;12100;44.384;20.272;2022-11-20T05:12:53;11.60;99.90
23839;DHT22;12100;44.384;20.272;2022-11-20T05:15:19;11.60;99.90
23839;DHT22;12100;44.384;20.272;2022-11-20T05:17:49;11.60;99.90
23839;DHT22;12100;44.384;20.272;2022-11-20T05:20:15;11.60;99.90
23839;DHT22;12100;44.384;20.272;2022-11-20T05:22:41;11.70;99.90
23839;DHT22;12100;44.384;20.272;2022-11-20T05:25:08;11.70;99.90
23839;DHT22;12100;44.384;20.272;2022-11-20T05:27:34;11.60;99.90
23839;DHT22;12100;44.384;20.272;2022-11-20T05:29:59;11.50;99.90
23839;DHT22;12100;44.384;20.272;2022-11-20T05:32:25;11.30;99.90
23839;DHT22;12100;44.384;20.272;2022-11-20T05:34:54;11.20;99.90
23839;DHT22;12100;44.384;20.272;2022-11-20T05:37:20;11.10;99.90
23839;DHT22;12100;44.384;20.272;2022-11-20T05:39:46;11.00;99.90
23839;DHT22;12100;44.384;20.272;2022-11-20T05:42:11;11.10;99.90
23839;DHT22;12100;44.384;20.272;2022-11-20T05:44:56;11.00;99.90
23839;DHT22;12100;44.384;20.272;2022-11-20T05:47:22;11.10;99.90
23839;DHT22;12100;44.384;20.272;2022-11-20T05:49:48;11.20;99.90
23839;DHT22;12100;44.384;20.272;2022-11-20T05:52:14;11.30;99.90
23839;DHT22;12100;44.384;20.272;2022-11-20T05:54:39;11.20;99.90
23839;DHT22;12100;44.384;20.272;2022-11-20T05:57:05;11.20;99.90
23839;DHT22;12100;44.384;20.272;2022-11-20T05:59:31;10.80;99.90
23839;DHT22;12100;44.384;20.272;2022-11-20T06:01:57;11.10;99.90
23839;DHT22;12100;44.384;20.272;2022-11-20T06:04:22;11.00;99.90
23839;DHT22;12100;44.384;20.272;2022-11-20T06:06:48;10.80;99.90
23839;DHT22;12100;44.384;20.272;2022-11-20T06:09:14;10.70;99.90
23839;DHT22;12100;44.384;20.272;2022-11-20T06:11:40;10.70;99.90
23839;DHT22;12100;44.384;20.272;2022-11-20T06:14:06;10.80;99.90
23839;DHT22;12100;44.384;20.272;2022-11-20T06:16:32;10.80;99.90
23839;DHT22;12100;44.384;20.272;2022-11-20T06:18:57;10.80;99.90
23839;DHT22;12100;44.384;20.272;2022-11-20T06:21:24;10.80;99.90
23839;DHT22;12100;44.384;20.272;2022-11-20T06:23:51;10.80;99.90
23839;DHT22;12100;44.384;20.272;2022-11-20T06:26:23;10.80;99.90
23839;DHT22;12100;44.384;20.272;2022-11-20T06:28:50;10.80;99.90
23839;DHT22;12100;44.384;20.272;2022-11-20T06:31:19;11.00;99.90
23839;DHT22;12100;44.384;20.272;2022-11-20T06:33:45;11.00;99.90
23839;DHT22;12100;44.384;20.272;2022-11-20T06:36:13;11.10;99.90
23839;DHT22;12100;44.384;20.272;2022-11-20T06:38:39;11.20;99.90
23839;DHT22;12100;44.384;20.272;2022-11-20T06:41:08;11.40;99.90
23839;DHT22;12100;44.384;20.272;2022-11-20T06:43:35;11.50;99.90
23839;DHT22;12100;44.384;20.272;2022-11-20T06:46:01;11.40;99.90
23839;DHT22;12100;44.384;20.272;2022-11-20T06:48:28;11.40;99.90
23839;DHT22;12100;44.384;20.272;2022-11-20T06:50:54;11.50;99.90
23839;DHT22;12100;44.384;20.272;2022-11-20T06:53:19;11.80;99.90
23839;DHT22;12100;44.384;20.272;2022-11-20T06:55:46;11.90;99.90
23839;DHT22;12100;44.384;20.272;2022-11-20T06:58:14;12.10;99.90
23839;DHT22;12100;44.384;20.272;2022-11-20T07:00:40;12.20;99.90
23839;DHT22;12100;44.384;20.272;2022-11-20T07:03:08;12.10;99.90
23839;DHT22;12100;44.384;20.272;2022-11-20T07:05:35;12.10;99.90
23839;DHT22;12100;44.384;20.272;2022-11-20T07:08:02;12.20;99.90
23839;DHT22;12100;44.384;20.272;2022-11-20T07:10:28;12.10;99.90
23839;DHT22;12100;44.384;20.272;2022-11-20T07:12:54;12.30;99.90
23839;DHT22;12100;44.384;20.272;2022-11-20T07:15:21;12.30;99.90
23839;DHT22;12100;44.384;20.272;2022-11-20T07:17:48;12.20;99.90
23839;DHT22;12100;44.384;20.272;2022-11-20T07:20:14;12.30;99.90
23839;DHT22;12100;44.384;20.272;2022-11-20T07:22:40;12.30;99.90
23839;DHT22;12100;44.384;20.272;2022-11-20T07:25:06;12.30;99.90
23839;DHT22;12100;44.384;20.272;2022-11-20T07:27:32;12.50;99.90
23839;DHT22;12100;44.384;20.272;2022-11-20T07:29:58;12.50;99.90
23839;DHT22;12100;44.384;20.272;2022-11-20T07:32:24;12.60;99.90
23839;DHT22;12100;44.384;20.272;2022-11-20T07:34:50;12.70;99.90
23839;DHT22;12100;44.384;20.272;2022-11-20T07:37:16;12.80;99.90
23839;DHT22;12100;44.384;20.272;2022-11-20T07:39:42;12.80;99.90
23839;DHT22;12100;44.384;20.272;2022-11-20T07:42:08;12.80;99.90
23839;DHT22;12100;44.384;20.272;2022-11-20T07:44:34;12.80;99.90
23839;DHT22;12100;44.384;20.272;2022-11-20T07:47:00;12.90;99.90
23839;DHT22;12100;44.384;20.272;2022-11-20T07:49:26;12.90;99.90
23839;DHT22;12100;44.384;20.272;2022-11-20T07:51:52;12.90;99.90
23839;DHT22;12100;44.384;20.272;2022-11-20T07:54:22;12.90;99.90
23839;DHT22;12100;44.384;20.272;2022-11-20T07:56:48;12.80;99.90
23839;DHT22;12100;44.384;20.272;2022-11-20T07:59:15;12.70;99.90
23839;DHT22;12100;44.384;20.272;2022-11-20T08:01:42;12.80;99.90
23839;DHT22;12100;44.384;20.272;2022-11-20T08:04:09;12.80;99.90
23839;DHT22;12100;44.384;20.272;2022-11-20T08:06:35;12.90;99.90
23839;DHT22;12100;44.384;20.272;2022-11-20T08:09:02;12.90;99.90
23839;DHT22;12100;44.384;20.272;2022-11-20T08:11:28;12.90;99.90
23839;DHT22;12100;44.384;20.272;2022-11-20T08:14:12;12.90;99.90
23839;DHT22;12100;44.384;20.272;2022-11-20T08:19:08;12.80;99.90
23839;DHT22;12100;44.384;20.272;2022-11-20T08:21:34;12.80;99.90
23839;DHT22;12100;44.384;20.272;2022-11-20T08:24:00;12.80;99.90
23839;DHT22;12100;44.384;20.272;2022-11-20T08:26:26;12.70;99.90
23839;DHT22;12100;44.384;20.272;2022-11-20T08:28:56;12.70;99.90
23839;DHT22;12100;44.384;20.272;2022-11-20T08:31:23;12.70;99.90
23839;DHT22;12100;44.384;20.272;2022-11-20T08:33:50;12.60;99.90
23839;DHT22;12100;44.384;20.272;2022-11-20T08:36:16;12.60;99.90
23839;DHT22;12100;44.384;20.272;2022-11-20T08:38:46;12.70;99.90
23839;DHT22;12100;44.384;20.272;2022-11-20T08:41:12;12.70;99.90
23839;DHT22;12100;44.384;20.272;2022-11-20T08:43:50;12.70;99.90
23839;DHT22;12100;44.384;20.272;2022-11-20T08:46:16;12.70;99.90
23839;DHT22;12100;44.384;20.272;2022-11-20T08:48:43;12.70;99.90
23839;DHT22;12100;44.384;20.272;2022-11-20T08:51:09;12.70;99.90
23839;DHT22;12100;44.384;20.272;2022-11-20T08:53:35;12.70;99.90
23839;DHT22;12100;44.384;20.272;2022-11-20T08:56:01;12.70;99.90
23839;DHT22;12100;44.384;20.272;2022-11-20T08:58:27;12.80;99.90
23839;DHT22;12100;44.384;20.272;2022-11-20T09:00:53;13.00;99.90
23839;DHT22;12100;44.384;20.272;2022-11-20T09:03:19;13.10;99.90
23839;DHT22;12100;44.384;20.272;2022-11-20T09:05:45;13.00;99.90
23839;DHT22;12100;44.384;20.272;2022-11-20T09:08:11;13.10;99.90
23839;DHT22;12100;44.384;20.272;2022-11-20T09:10:37;13.00;99.90
23839;DHT22;12100;44.384;20.272;2022-11-20T09:13:05;13.10;99.90
23839;DHT22;12100;44.384;20.272;2022-11-20T09:15:31;13.00;99.90
23839;DHT22;12100;44.384;20.272;2022-11-20T09:17:58;13.00;99.90
23839;DHT22;12100;44.384;20.272;2022-11-20T09:20:25;13.00;99.90
23839;DHT22;12100;44.384;20.272;2022-11-20T09:22:51;13.00;99.90
23839;DHT22;12100;44.384;20.272;2022-11-20T09:25:17;13.00;99.90
23839;DHT22;12100;44.384;20.272;2022-11-20T09:27:43;13.10;99.90
23839;DHT22;12100;44.384;20.272;2022-11-20T09:30:12;13.10;99.90
23839;DHT22;12100;44.384;20.272;2022-11-20T09:32:41;13.20;99.90
23839;DHT22;12100;44.384;20.272;2022-11-20T09:35:08;13.30;99.90
23839;DHT22;12100;44.384;20.272;2022-11-20T09:37:34;13.50;99.90
23839;DHT22;12100;44.384;20.272;2022-11-20T09:40:00;13.70;99.90
23839;DHT22;12100;44.384;20.272;2022-11-20T09:45:44;13.80;99.90
23839;DHT22;12100;44.384;20.272;2022-11-20T09:51:13;13.70;99.90
23839;DHT22;12100;44.384;20.272;2022-11-20T09:54:06;13.70;99.90
23839;DHT22;12100;44.384;20.272;2022-11-20T09:56:39;13.60;99.90
23839;DHT22;12100;44.384;20.272;2022-11-20T09:59:08;13.60;99.90
23839;DHT22;12100;44.384;20.272;2022-11-20T10:01:37;13.50;99.90
23839;DHT22;12100;44.384;20.272;2022-11-20T10:04:17;13.50;99.90
23839;DHT22;12100;44.384;20.272;2022-11-20T10:09:40;13.50;99.90
23839;DHT22;12100;44.384;20.272;2022-11-20T10:20:30;13.50;99.90
23839;DHT22;12100;44.384;20.272;2022-11-20T10:25:46;13.50;99.90
23839;DHT22;12100;44.384;20.272;2022-11-20T10:31:08;13.60;99.90
23839;DHT22;12100;44.384;20.272;2022-11-20T10:33:42;13.60;99.90
23839;DHT22;12100;44.384;20.272;2022-11-20T10:36:17;13.70;99.90
23839;DHT22;12100;44.384;20.272;2022-11-20T10:38:56;13.70;99.90
23839;DHT22;12100;44.384;20.272;2022-11-20T10:41:28;13.70;99.90
23839;DHT22;12100;44.384;20.272;2022-11-20T10:47:14;13.70;99.90
23839;DHT22;12100;44.384;20.272;2022-11-20T10:49:42;13.80;99.90
23839;DHT22;12100;44.384;20.272;2022-11-20T10:55:12;13.80;99.90
23839;DHT22;12100;44.384;20.272;2022-11-20T11:00:15;13.90;99.90
23839;DHT22;12100;44.384;20.272;2022-11-20T11:02:52;13.90;99.90
23839;DHT22;12100;44.384;20.272;2022-11-20T11:05:38;13.90;99.90
23839;DHT22;12100;44.384;20.272;2022-11-20T11:08:12;13.90;99.90
23839;DHT22;12100;44.384;20.272;2022-11-20T11:13:25;14.00;99.90
23839;DHT22;12100;44.384;20.272;2022-11-20T11:15:52;13.90;99.90
23839;DHT22;12100;44.384;20.272;2022-11-20T11:18:28;13.90;99.90
23839;DHT22;12100;44.384;20.272;2022-11-20T11:20:56;13.90;99.90
23839;DHT22;12100;44.384;20.272;2022-11-20T11:23:39;13.80;99.90
23839;DHT22;12100;44.384;20.272;2022-11-20T11:26:06;13.80;99.90
23839;DHT22;12100;44.384;20.272;2022-11-20T11:28:33;13.80;99.90
23839;DHT22;12100;44.384;20.272;2022-11-20T11:30:59;13.60;99.90
23839;DHT22;12100;44.384;20.272;2022-11-20T11:33:27;13.20;99.90
23839;DHT22;12100;44.384;20.272;2022-11-20T11:36:00;13.10;99.90
23839;DHT22;12100;44.384;20.272;2022-11-20T11:41:02;13.20;99.90
23839;DHT22;12100;44.384;20.272;2022-11-20T11:43:34;13.20;99.90
23839;DHT22;12100;44.384;20.272;2022-11-20T11:48:58;13.20;99.90
23839;DHT22;12100;44.384;20.272;2022-11-20T11:54:01;13.30;99.90
23839;DHT22;12100;44.384;20.272;2022-11-20T11:56:30;13.20;99.90
23839;DHT22;12100;44.384;20.272;2022-11-20T11:59:01;13.10;99.90
23839;DHT22;12100;44.384;20.272;2022-11-20T12:01:44;13.00;99.90
23839;DHT22;12100;44.384;20.272;2022-11-20T12:04:42;13.00;99.90
23839;DHT22;12100;44.384;20.272;2022-11-20T12:07:46;13.00;99.90
23839;DHT22;12100;44.384;20.272;2022-11-20T12:15:50;13.00;99.90
23839;DHT22;12100;44.384;20.272;2022-11-20T12:18:21;13.00;99.90
23839;DHT22;12100;44.384;20.272;2022-11-20T12:25:59;13.10;99.90
23839;DHT22;12100;44.384;20.272;2022-11-20T12:28:33;13.00;99.90
23839;DHT22;12100;44.384;20.272;2022-11-20T12:39:43;12.50;99.90
23839;DHT22;12100;44.384;20.272;2022-11-20T12:42:23;12.40;99.90
23839;DHT22;12100;44.384;20.272;2022-11-20T12:47:58;12.30;99.90
23839;DHT22;12100;44.384;20.272;2022-11-20T13:01:35;12.10;99.90
23839;DHT22;12100;44.384;20.272;2022-11-20T13:06:50;12.10;99.90
23839;DHT22;12100;44.384;20.272;2022-11-20T13:09:18;12.00;99.90
23839;DHT22;12100;44.384;20.272;2022-11-20T13:12:08;11.90;99.90
23839;DHT22;12100;44.384;20.272;2022-11-20T13:19:55;11.70;99.90
23839;DHT22;12100;44.384;20.272;2022-11-20T13:22:29;11.50;99.90
23839;DHT22;12100;44.384;20.272;2022-11-20T13:24:55;11.40;99.90
23839;DHT22;12100;44.384;20.272;2022-11-20T13:27:22;11.30;99.90
23839;DHT22;12100;44.384;20.272;2022-11-20T13:30:18;11.20;99.90
23839;DHT22;12100;44.384;20.272;2022-11-20T13:32:56;11.10;99.90
23839;DHT22;12100;44.384;20.272;2022-11-20T13:35:53;11.00;99.90
23839;DHT22;12100;44.384;20.272;2022-11-20T13:38:20;10.90;99.90
23839;DHT22;12100;44.384;20.272;2022-11-20T13:40:57;10.80;99.90
23839;DHT22;12100;44.384;20.272;2022-11-20T13:43:40;10.60;99.90
23839;DHT22;12100;44.384;20.272;2022-11-20T13:46:08;10.50;99.90
23839;DHT22;12100;44.384;20.272;2022-11-20T13:48:39;10.50;99.90
23839;DHT22;12100;44.384;20.272;2022-11-20T13:51:25;10.50;99.90
23839;DHT22;12100;44.384;20.272;2022-11-20T13:54:22;10.50;99.90
23839;DHT22;12100;44.384;20.272;2022-11-20T14:02:14;10.50;99.90
23839;DHT22;12100;44.384;20.272;2022-11-20T14:04:45;10.40;99.90
23839;DHT22;12100;44.384;20.272;2022-11-20T14:07:13;10.40;99.90
23839;DHT22;12100;44.384;20.272;2022-11-20T14:09:38;10.30;99.90
23839;DHT22;12100;44.384;20.272;2022-11-20T14:12:15;10.30;99.90
23839;DHT22;12100;44.384;20.272;2022-11-20T14:14:48;10.30;99.90
23839;DHT22;12100;44.384;20.272;2022-11-20T14:19:51;10.30;99.90
23839;DHT22;12100;44.384;20.272;2022-11-20T14:22:24;10.20;99.90
23839;DHT22;12100;44.384;20.272;2022-11-20T14:27:47;10.20;99.90
23839;DHT22;12100;44.384;20.272;2022-11-20T14:30:16;10.10;99.90
23839;DHT22;12100;44.384;20.272;2022-11-20T14:32:44;10.20;99.90
23839;DHT22;12100;44.384;20.272;2022-11-20T14:35:25;10.10;99.90
23839;DHT22;12100;44.384;20.272;2022-11-20T14:37:51;10.10;99.90
23839;DHT22;12100;44.384;20.272;2022-11-20T14:42:51;10.10;99.90
23839;DHT22;12100;44.384;20.272;2022-11-20T14:45:17;10.10;99.90
23839;DHT22;12100;44.384;20.272;2022-11-20T14:47:44;10.10;99.90
23839;DHT22;12100;44.384;20.272;2022-11-20T14:50:23;9.90;99.90
23839;DHT22;12100;44.384;20.272;2022-11-20T14:52:54;10.00;99.90
23839;DHT22;12100;44.384;20.272;2022-11-20T14:55:30;10.00;99.90
23839;DHT22;12100;44.384;20.272;2022-11-20T14:58:03;10.00;99.90
23839;DHT22;12100;44.384;20.272;2022-11-20T15:00:30;9.90;99.90
23839;DHT22;12100;44.384;20.272;2022-11-20T15:02:56;9.90;99.90
23839;DHT22;12100;44.384;20.272;2022-11-20T15:05:47;9.80;99.90
23839;DHT22;12100;44.384;20.272;2022-11-20T15:08:14;9.70;99.90
23839;DHT22;12100;44.384;20.272;2022-11-20T15:10:49;9.70;99.90
23839;DHT22;12100;44.384;20.272;2022-11-20T15:13:38;9.70;99.90
23839;DHT22;12100;44.384;20.272;2022-11-20T15:16:21;9.60;99.90
23839;DHT22;12100;44.384;20.272;2022-11-20T15:18:47;9.70;99.90
23839;DHT22;12100;44.384;20.272;2022-11-20T15:21:16;9.60;99.90
23839;DHT22;12100;44.384;20.272;2022-11-20T15:23:42;9.60;99.90
23839;DHT22;12100;44.384;20.272;2022-11-20T15:26:10;9.50;99.90
23839;DHT22;12100;44.384;20.272;2022-11-20T15:28:43;9.50;99.90
23839;DHT22;12100;44.384;20.272;2022-11-20T15:31:15;9.60;99.90
23839;DHT22;12100;44.384;20.272;2022-11-20T15:33:41;9.60;99.90
23839;DHT22;12100;44.384;20.272;2022-11-20T15:36:08;9.50;99.90
23839;DHT22;12100;44.384;20.272;2022-11-20T15:38:34;9.50;99.90
23839;DHT22;12100;44.384;20.272;2022-11-20T15:41:00;9.60;99.90
23839;DHT22;12100;44.384;20.272;2022-11-20T15:43:26;9.50;99.90
23839;DHT22;12100;44.384;20.272;2022-11-20T15:46:16;9.50;99.90
23839;DHT22;12100;44.384;20.272;2022-11-20T15:48:44;9.50;99.90
23839;DHT22;12100;44.384;20.272;2022-11-20T15:53:37;9.50;99.90
23839;DHT22;12100;44.384;20.272;2022-11-20T15:56:03;9.50;99.90
23839;DHT22;12100;44.384;20.272;2022-11-20T15:58:29;9.50;99.90
23839;DHT22;12100;44.384;20.272;2022-11-20T16:00:56;9.40;99.90
23839;DHT22;12100;44.384;20.272;2022-11-20T16:03:22;9.40;99.90
23839;DHT22;12100;44.384;20.272;2022-11-20T16:05:48;9.40;99.90
23839;DHT22;12100;44.384;20.272;2022-11-20T16:08:14;9.40;99.90
23839;DHT22;12100;44.384;20.272;2022-11-20T16:10:40;9.30;99.90
23839;DHT22;12100;44.384;20.272;2022-11-20T16:13:15;9.30;99.90
23839;DHT22;12100;44.384;20.272;2022-11-20T16:16:10;9.30;99.90
23839;DHT22;12100;44.384;20.272;2022-11-20T16:18:37;9.30;99.90
23839;DHT22;12100;44.384;20.272;2022-11-20T16:21:03;9.20;99.90
23839;DHT22;12100;44.384;20.272;2022-11-20T16:23:29;9.20;99.90
23839;DHT22;12100;44.384;20.272;2022-11-20T16:25:54;9.20;99.90
23839;DHT22;12100;44.384;20.272;2022-11-20T16:28:20;9.10;99.90
23839;DHT22;12100;44.384;20.272;2022-11-20T16:30:46;9.00;99.90
23839;DHT22;12100;44.384;20.272;2022-11-20T16:33:14;9.00;99.90
23839;DHT22;12100;44.384;20.272;2022-11-20T16:35:40;9.00;99.90
23839;DHT22;12100;44.384;20.272;2022-11-20T16:38:06;9.00;99.90
23839;DHT22;12100;44.384;20.272;2022-11-20T16:40:32;9.00;99.90
23839;DHT22;12100;44.384;20.272;2022-11-20T16:43:08;9.00;99.90
23839;DHT22;12100;44.384;20.272;2022-11-20T16:45:34;9.00;99.90
23839;DHT22;12100;44.384;20.272;2022-11-20T16:48:00;9.00;99.90
23839;DHT22;12100;44.384;20.272;2022-11-20T16:50:25;8.90;99.90
23839;DHT22;12100;44.384;20.272;2022-11-20T16:52:51;8.90;99.90
23839;DHT22;12100;44.384;20.272;2022-11-20T16:55:17;8.80;99.90
23839;DHT22;12100;44.384;20.272;2022-11-20T16:57:43;8.70;99.90
23839;DHT22;12100;44.384;20.272;2022-11-20T17:00:09;8.60;99.90
23839;DHT22;12100;44.384;20.272;2022-11-20T17:02:35;8.60;99.90
23839;DHT22;12100;44.384;20.272;2022-11-20T17:05:02;8.60;99.90
23839;DHT22;12100;44.384;20.272;2022-11-20T17:07:28;8.50;99.90
23839;DHT22;12100;44.384;20.272;2022-11-20T17:09:54;8.50;99.90
23839;DHT22;12100;44.384;20.272;2022-11-20T17:12:20;8.40;99.90
23839;DHT22;12100;44.384;20.272;2022-11-20T17:14:46;8.40;99.90
23839;DHT22;12100;44.384;20.272;2022-11-20T17:17:12;8.40;99.90
23839;DHT22;12100;44.384;20.272;2022-11-20T17:19:37;8.30;99.90
23839;DHT22;12100;44.384;20.272;2022-11-20T17:22:03;8.30;99.90
23839;DHT22;12100;44.384;20.272;2022-11-20T17:24:29;8.30;99.90